Baldwin, North Dakota
Current Conditions -  °F | °C
As of 6:52 PM on Thursday 27 Nov 2014 (Local Time) from KBIS Reporting Station
Light Snow Light Snow  
Wind Chill: -5°   Ceiling: 1600
Heat Index: 12°   Visibility: 7mi
Dew Point:   Wind: 17mph
Humidity: 80%   Direction: 150°SSE
Pressure: 29.97"   Gusts: NA
Location:  47.02°N, 100.75°W
Report Text: KBIS 280052Z 15015KT 7SM -SN OVC016 M11/M14 A2997 RMK AO2 SLP192 P0000 T11111139
Loading
Personal Weather Stations






























Interactive Weather Map New forecast layout! Learn more

10-Day Weather Forecast

Advertisements
Track Severe Weather on mobile